Time;durP1;ratioP1;P1;durP2;ratioP2;P2;SDS_P1;SDS_P2;PMS_P1;PMS_P2;Temp;Humidity;BMP_temperature;BMP_pressure;BME280_temperature;BME280_humidity;BME280_pressure;Samples;Min_cycle;Max_cycle;Signal;HPM_P1;HPM_P2
2023/02/28 00:01:22;;;;;;;6.20;4.50;;;3.10;99.90;;;;;;5022826;28;20421;-80
2023/02/28 00:03:48;;;;;;;5.30;4.60;;;3.10;99.90;;;;;;5030695;28;20487;-80
2023/02/28 00:06:13;;;;;;;5.47;4.10;;;3.30;99.90;;;;;;5030120;28;20457;-79
2023/02/28 00:08:39;;;;;;;5.80;4.80;;;3.10;99.90;;;;;;5015602;28;20508;-80
2023/02/28 00:11:07;;;;;;;4.97;4.40;;;3.20;99.90;;;;;;5031772;28;20413;-80
2023/02/28 00:13:38;;;;;;;6.33;4.50;;;3.20;99.90;;;;;;5005700;28;20797;-80
2023/02/28 00:16:07;;;;;;;5.40;4.03;;;3.10;99.90;;;;;;5021569;28;20421;-79
2023/02/28 00:18:32;;;;;;;7.03;4.30;;;3.20;99.90;;;;;;5030864;28;20941;-80
2023/02/28 00:20:59;;;;;;;7.03;4.20;;;3.10;99.90;;;;;;5005633;28;20460;-80
2023/02/28 00:23:26;;;;;;;4.40;4.00;;;3.00;99.90;;;;;;5031262;28;20281;-80
2023/02/28 00:25:52;;;;;;;6.07;4.33;;;3.10;99.90;;;;;;5007147;28;20418;-80
2023/02/28 00:28:18;;;;;;;4.73;4.13;;;3.10;99.90;;;;;;5031075;28;20492;-80
2023/02/28 00:30:44;;;;;;;6.03;4.17;;;3.20;99.90;;;;;;5028555;28;20461;-80
2023/02/28 00:33:10;;;;;;;5.23;4.30;;;3.10;99.90;;;;;;5030873;28;20433;-80
2023/02/28 00:35:36;;;;;;;3.90;3.50;;;3.00;99.90;;;;;;5031438;28;20909;-80
2023/02/28 00:38:02;;;;;;;4.23;3.20;;;3.20;99.90;;;;;;5021666;28;20340;-80
2023/02/28 00:40:28;;;;;;;5.40;3.70;;;3.10;99.90;;;;;;5031147;28;20190;-79
2023/02/28 00:42:54;;;;;;;4.73;3.90;;;3.00;99.90;;;;;;5022539;28;20421;-77
2023/02/28 00:45:20;;;;;;;4.13;3.73;;;2.90;99.90;;;;;;5034359;28;20908;-81
2023/02/28 00:47:46;;;;;;;4.00;3.50;;;3.20;99.90;;;;;;5023362;28;20229;-80
2023/02/28 00:50:12;;;;;;;4.73;4.23;;;2.90;99.90;;;;;;5034179;28;20190;-80
2023/02/28 00:52:38;;;;;;;5.50;4.17;;;2.90;99.90;;;;;;5023087;28;20487;-80
2023/02/28 00:55:04;;;;;;;6.03;4.00;;;2.80;99.90;;;;;;5034216;28;20425;-81
2023/02/28 00:57:30;;;;;;;4.43;3.87;;;2.90;99.90;;;;;;5025715;28;20202;-81
2023/02/28 00:59:55;;;;;;;5.47;4.43;;;2.90;99.90;;;;;;5033821;28;21320;-80
2023/02/28 01:02:22;;;;;;;5.03;4.30;;;3.00;99.90;;;;;;5033845;28;20420;-81
2023/02/28 01:04:48;;;;;;;5.87;4.27;;;3.00;99.90;;;;;;5023846;28;20217;-80
2023/02/28 01:07:14;;;;;;;9.37;4.43;;;2.90;99.90;;;;;;5009048;28;20488;-80
2023/02/28 01:09:40;;;;;;;4.90;3.93;;;2.80;99.90;;;;;;5029851;28;20425;-80
2023/02/28 01:12:07;;;;;;;5.17;3.57;;;2.90;99.90;;;;;;5033239;28;20205;-80
2023/02/28 01:14:33;;;;;;;7.00;4.40;;;2.70;99.90;;;;;;5027982;28;20788;-81
2023/02/28 01:16:58;;;;;;;4.37;3.80;;;2.60;99.90;;;;;;5023817;28;20441;-80
2023/02/28 01:19:24;;;;;;;7.20;4.27;;;2.60;99.90;;;;;;5025729;28;20444;-81
2023/02/28 01:21:50;;;;;;;5.43;4.30;;;2.60;99.90;;;;;;5022861;28;20186;-81
2023/02/28 01:24:15;;;;;;;5.57;4.17;;;2.60;99.90;;;;;;5033593;28;20309;-81
2023/02/28 01:26:41;;;;;;;4.13;3.50;;;2.80;99.90;;;;;;5006221;28;20218;-80
2023/02/28 01:29:07;;;;;;;5.77;4.40;;;2.60;99.90;;;;;;5032533;28;20591;-80
2023/02/28 01:31:32;;;;;;;4.00;3.60;;;2.60;99.90;;;;;;5026179;28;20185;-81
2023/02/28 01:33:58;;;;;;;5.07;3.83;;;2.60;99.90;;;;;;5032307;28;20253;-80
2023/02/28 01:36:25;;;;;;;4.70;4.20;;;2.60;99.90;;;;;;5027489;28;20286;-80
2023/02/28 01:38:51;;;;;;;7.83;4.60;;;2.60;99.90;;;;;;5014876;28;20173;-80
2023/02/28 01:41:20;;;;;;;4.77;3.90;;;2.60;99.90;;;;;;5023388;28;20423;-80
2023/02/28 01:43:46;;;;;;;5.03;4.07;;;2.50;99.90;;;;;;5031881;28;20420;-79
2023/02/28 01:46:13;;;;;;;4.30;3.90;;;2.40;99.90;;;;;;5031238;28;20942;-79
2023/02/28 01:48:46;;;;;;;5.47;3.90;;;2.40;99.90;;;;;;5031415;28;20201;-80
2023/02/28 01:51:17;;;;;;;7.50;4.17;;;2.60;99.90;;;;;;5031798;28;20468;-80
2023/02/28 01:53:52;;;;;;;4.00;3.63;;;2.50;99.90;;;;;;5031888;28;20456;-79
2023/02/28 01:56:22;;;;;;;5.37;4.07;;;2.30;99.90;;;;;;5031905;28;20441;-79
2023/02/28 01:58:50;;;;;;;4.87;3.60;;;2.40;99.90;;;;;;5014600;28;20432;-80
2023/02/28 02:01:21;;;;;;;4.10;3.70;;;2.50;99.90;;;;;;5022575;28;20913;-80
2023/02/28 02:04:02;;;;;;;7.20;3.50;;;2.50;99.90;;;;;;5014781;28;20939;-79
2023/02/28 02:06:35;;;;;;;3.60;2.83;;;2.30;99.90;;;;;;5032197;28;20437;-79
2023/02/28 02:09:01;;;;;;;4.23;3.53;;;2.40;99.90;;;;;;5014307;28;20983;-79
2023/02/28 02:11:29;;;;;;;5.90;3.37;;;2.40;99.90;;;;;;5037069;28;20455;-80
2023/02/28 02:14:25;;;;;;;4.47;3.70;;;2.20;99.90;;;;;;5038631;28;20413;-80
2023/02/28 02:17:28;;;;;;;4.93;3.73;;;2.30;99.90;;;;;;5017042;28;20441;-79
2023/02/28 02:20:09;;;;;;;3.20;2.90;;;2.20;99.90;;;;;;5031029;28;20417;-79
2023/02/28 02:22:54;;;;;;;4.60;3.27;;;2.40;99.90;;;;;;5031361;28;20476;-79
2023/02/28 02:25:31;;;;;;;3.77;3.37;;;2.40;99.90;;;;;;5030748;28;20452;-79
2023/02/28 02:28:05;;;;;;;3.07;2.83;;;2.30;99.90;;;;;;5030842;28;20464;-79
2023/02/28 02:30:53;;;;;;;5.37;3.37;;;2.10;99.90;;;;;;5028016;28;20379;-79
2023/02/28 02:33:43;;;;;;;3.57;2.90;;;2.30;99.90;;;;;;5012939;28;20417;-79
2023/02/28 02:36:29;;;;;;;4.30;3.90;;;2.30;99.90;;;;;;5030768;28;20420;-79
2023/02/28 02:39:05;;;;;;;4.57;3.30;;;2.10;99.90;;;;;;5030902;28;20412;-79
2023/02/28 02:41:51;;;;;;;6.03;3.67;;;2.20;99.90;;;;;;5012724;28;20481;-80
2023/02/28 02:44:26;;;;;;;4.90;3.80;;;2.20;99.90;;;;;;5031091;28;21169;-79
2023/02/28 02:46:58;;;;;;;4.83;3.63;;;2.00;99.90;;;;;;5012263;28;20851;-79
2023/02/28 02:49:31;;;;;;;6.00;4.20;;;2.00;99.90;;;;;;5013105;28;20492;-78
2023/02/28 02:52:01;;;;;;;5.53;3.43;;;2.20;99.90;;;;;;5030379;28;20468;-79
2023/02/28 02:54:28;;;;;;;5.37;3.70;;;2.10;99.90;;;;;;5012804;28;20405;-80
2023/02/28 02:57:00;;;;;;;7.73;3.70;;;2.20;99.90;;;;;;5030219;28;20441;-80
2023/02/28 02:59:28;;;;;;;5.47;3.90;;;1.90;99.90;;;;;;5012797;28;20424;-79
2023/02/28 03:01:59;;;;;;;5.33;3.93;;;1.90;99.90;;;;;;5030877;28;20413;-79
2023/02/28 03:04:30;;;;;;;5.63;3.57;;;1.80;99.90;;;;;;5030401;28;20416;-78
2023/02/28 03:06:56;;;;;;;4.27;3.30;;;1.80;99.90;;;;;;5030314;28;20518;-79
2023/02/28 03:09:22;;;;;;;3.50;3.07;;;1.90;99.90;;;;;;5030366;28;20421;-79
2023/02/28 03:11:50;;;;;;;4.17;3.47;;;1.90;99.90;;;;;;5030348;28;20414;-79
2023/02/28 03:14:51;;;;;;;5.97;3.63;;;2.00;99.90;;;;;;5012669;28;20975;-79
2023/02/28 03:17:38;;;;;;;6.53;5.03;;;1.80;99.90;;;;;;5012558;28;21059;-79
2023/02/28 03:20:48;;;;;;;4.70;3.90;;;1.90;99.90;;;;;;5012991;28;20421;-79
2023/02/28 03:23:21;;;;;;;7.00;3.57;;;1.90;99.90;;;;;;5006293;28;20456;-79
2023/02/28 03:26:07;;;;;;;3.90;3.60;;;1.90;99.90;;;;;;5030512;28;20417;-80
2023/02/28 03:28:44;;;;;;;5.40;3.47;;;1.80;99.90;;;;;;5030167;28;20547;-79
2023/02/28 03:31:20;;;;;;;4.07;3.67;;;1.90;99.90;;;;;;5010595;28;20417;-80
2023/02/28 03:33:54;;;;;;;4.40;3.40;;;1.70;99.90;;;;;;5029540;28;20775;-79
2023/02/28 03:36:24;;;;;;;4.43;3.70;;;1.90;99.90;;;;;;5030180;28;20532;-79
2023/02/28 03:38:56;;;;;;;4.37;3.23;;;1.90;99.90;;;;;;5030583;28;20409;-79
2023/02/28 03:41:23;;;;;;;4.50;3.47;;;1.70;99.90;;;;;;5030693;28;20413;-79
2023/02/28 03:44:04;;;;;;;6.27;3.93;;;2.00;99.90;;;;;;4996660;28;20410;-80
2023/02/28 03:46:34;;;;;;;4.03;3.70;;;1.90;99.90;;;;;;5030880;28;20428;-79
2023/02/28 03:49:03;;;;;;;7.33;3.77;;;1.80;99.90;;;;;;5028541;28;20751;-79
2023/02/28 03:51:30;;;;;;;4.10;3.20;;;1.70;99.90;;;;;;5028851;28;20917;-79
2023/02/28 03:54:06;;;;;;;4.00;3.13;;;1.80;99.90;;;;;;5030450;28;20424;-79
2023/02/28 03:56:38;;;;;;;4.10;3.20;;;1.70;99.90;;;;;;5029492;28;20445;-80
2023/02/28 03:59:15;;;;;;;5.93;3.77;;;1.70;99.90;;;;;;5029178;28;20452;-79
2023/02/28 04:01:48;;;;;;;4.17;3.17;;;1.70;99.90;;;;;;5030498;28;20421;-79
2023/02/28 04:04:16;;;;;;;3.97;3.57;;;1.90;99.90;;;;;;5030390;28;20475;-79
2023/02/28 04:06:42;;;;;;;5.47;3.50;;;1.80;99.90;;;;;;5028970;28;20480;-80
2023/02/28 04:09:11;;;;;;;5.87;3.47;;;1.70;99.90;;;;;;5029366;28;20727;-79
2023/02/28 04:11:40;;;;;;;4.77;3.50;;;1.70;99.90;;;;;;5028728;28;20405;-79
2023/02/28 04:14:08;;;;;;;5.20;3.70;;;1.60;99.90;;;;;;5030155;28;20782;-80
2023/02/28 04:16:35;;;;;;;5.57;3.67;;;1.50;99.90;;;;;;5030144;28;20429;-79
2023/02/28 04:19:04;;;;;;;4.80;4.33;;;1.70;99.90;;;;;;5032749;28;20933;-79
2023/02/28 04:21:35;;;;;;;4.10;3.20;;;1.70;99.90;;;;;;5034124;28;20405;-79
2023/02/28 04:24:01;;;;;;;5.57;3.57;;;1.60;99.90;;;;;;5032975;28;20412;-79
2023/02/28 04:26:35;;;;;;;4.23;3.43;;;1.80;99.90;;;;;;5031444;28;20460;-79
2023/02/28 04:29:03;;;;;;;4.73;3.50;;;1.80;99.90;;;;;;5034872;28;20427;-79
2023/02/28 04:31:29;;;;;;;4.40;3.20;;;1.50;99.90;;;;;;5032099;28;20425;-79
2023/02/28 04:33:55;;;;;;;6.70;3.40;;;1.60;99.90;;;;;;5008851;28;20417;-80
2023/02/28 04:36:22;;;;;;;4.10;3.70;;;1.60;99.90;;;;;;4999590;28;20655;-79
2023/02/28 04:38:48;;;;;;;4.50;3.20;;;1.60;99.90;;;;;;5018051;28;20503;-81
2023/02/28 04:41:14;;;;;;;4.47;4.07;;;1.60;99.90;;;;;;5037451;28;20550;-77
2023/02/28 04:43:39;;;;;;;5.40;3.93;;;1.70;99.90;;;;;;5019510;28;20218;-78
2023/02/28 04:46:06;;;;;;;5.13;3.50;;;1.60;99.90;;;;;;5038281;28;20427;-80
2023/02/28 04:48:34;;;;;;;8.30;3.40;;;1.60;99.90;;;;;;5039860;28;20259;-81
2023/02/28 04:51:05;;;;;;;4.17;3.30;;;1.50;99.90;;;;;;5039824;28;20773;-79
2023/02/28 04:53:31;;;;;;;4.43;3.60;;;1.70;99.90;;;;;;5037860;28;20419;-80
2023/02/28 04:55:58;;;;;;;5.30;3.73;;;1.60;99.90;;;;;;5038185;28;20831;-81
2023/02/28 04:58:24;;;;;;;4.17;3.03;;;1.60;99.90;;;;;;5037654;28;20419;-79
2023/02/28 05:00:51;;;;;;;5.17;3.57;;;1.50;99.90;;;;;;5056032;28;20516;-80
2023/02/28 05:03:17;;;;;;;5.53;3.33;;;1.40;99.90;;;;;;5038173;28;20431;-79
2023/02/28 05:05:42;;;;;;;5.93;3.30;;;1.40;99.90;;;;;;5038303;28;20408;-79
2023/02/28 05:08:09;;;;;;;4.40;3.87;;;1.40;99.90;;;;;;5038284;28;20224;-79
2023/02/28 05:10:36;;;;;;;4.53;3.33;;;1.50;99.90;;;;;;5056393;28;20170;-79
2023/02/28 05:13:01;;;;;;;7.33;3.57;;;1.40;99.90;;;;;;5021506;28;20413;-79
2023/02/28 05:15:27;;;;;;;4.70;3.63;;;1.50;99.90;;;;;;5038832;28;20416;-80
2023/02/28 05:17:53;;;;;;;3.83;3.47;;;1.50;99.90;;;;;;5029195;28;20205;-79
2023/02/28 05:20:19;;;;;;;4.30;3.70;;;1.40;99.90;;;;;;5018240;28;20257;-80
2023/02/28 05:22:44;;;;;;;4.87;3.43;;;1.50;99.90;;;;;;5036403;28;20245;-80
2023/02/28 05:25:15;;;;;;;4.43;3.70;;;1.20;99.90;;;;;;5001897;28;20226;-79
2023/02/28 05:27:40;;;;;;;4.20;3.80;;;1.40;99.90;;;;;;5017640;28;20218;-79
2023/02/28 05:30:10;;;;;;;6.10;4.67;;;1.10;99.90;;;;;;5033902;28;21256;-78
2023/02/28 05:32:42;;;;;;;4.70;4.03;;;1.30;99.90;;;;;;5017538;28;20185;-79
2023/02/28 05:35:09;;;;;;;4.80;3.83;;;1.30;99.90;;;;;;5018377;28;20414;-80
2023/02/28 05:37:34;;;;;;;5.80;4.20;;;1.30;99.90;;;;;;5009187;28;20451;-79
2023/02/28 05:40:00;;;;;;;5.00;3.60;;;1.10;99.90;;;;;;5056247;28;20416;-79
2023/02/28 05:42:26;;;;;;;4.43;4.03;;;1.20;99.90;;;;;;5056405;28;20189;-78
2023/02/28 05:44:52;;;;;;;4.97;3.63;;;1.10;99.90;;;;;;5022002;28;20416;-79
2023/02/28 05:47:17;;;;;;;5.23;4.20;;;1.00;99.90;;;;;;5056776;28;20214;-80
2023/02/28 05:49:43;;;;;;;5.00;3.97;;;1.30;99.90;;;;;;5056663;28;20178;-79
2023/02/28 05:52:09;;;;;;;4.97;4.03;;;1.30;99.90;;;;;;5038178;28;20186;-79
2023/02/28 05:54:34;;;;;;;6.73;4.10;;;1.30;99.90;;;;;;5038072;28;20170;-79
2023/02/28 05:57:00;;;;;;;4.37;3.63;;;1.20;99.90;;;;;;5038533;28;20202;-79
2023/02/28 05:59:26;;;;;;;4.50;3.50;;;1.00;99.90;;;;;;5038593;28;20273;-79
2023/02/28 06:01:52;;;;;;;5.00;4.00;;;1.10;99.90;;;;;;5041125;28;20256;-77
2023/02/28 06:04:20;;;;;;;6.13;3.60;;;1.00;99.90;;;;;;5028724;28;20258;-79
2023/02/28 06:06:47;;;;;;;7.07;4.27;;;1.20;99.90;;;;;;5003502;28;20452;-79
2023/02/28 06:09:13;;;;;;;6.37;4.07;;;1.00;99.90;;;;;;5037677;28;20459;-78
2023/02/28 06:11:39;;;;;;;5.33;3.87;;;1.10;99.90;;;;;;5019482;28;20460;-81
2023/02/28 06:14:05;;;;;;;4.20;3.57;;;1.00;99.90;;;;;;5034519;28;20436;-82
2023/02/28 06:16:33;;;;;;;5.50;4.07;;;1.20;99.90;;;;;;5035440;28;20433;-80
2023/02/28 06:19:01;;;;;;;7.10;4.27;;;1.10;99.90;;;;;;5034486;28;20433;-80
2023/02/28 06:21:28;;;;;;;5.67;4.20;;;0.90;99.90;;;;;;5004123;28;20516;-81
2023/02/28 06:23:55;;;;;;;6.07;4.87;;;1.00;99.90;;;;;;5009163;28;20475;-79
2023/02/28 06:26:20;;;;;;;7.20;4.37;;;0.80;99.90;;;;;;5035196;28;20960;-79
2023/02/28 06:28:47;;;;;;;5.40;4.47;;;0.90;99.90;;;;;;5034232;28;20467;-80
2023/02/28 06:31:15;;;;;;;4.77;3.97;;;1.00;99.90;;;;;;5013250;28;20281;-80
2023/02/28 06:33:43;;;;;;;7.40;3.93;;;1.10;99.90;;;;;;5022028;28;20437;-79
2023/02/28 06:36:11;;;;;;;5.20;4.57;;;0.90;99.90;;;;;;5035680;28;20454;-82
2023/02/28 06:38:37;;;;;;;6.17;3.83;;;0.80;99.90;;;;;;5034541;28;20459;-81
2023/02/28 06:41:03;;;;;;;5.63;4.47;;;0.80;99.90;;;;;;5034086;28;20487;-79
2023/02/28 06:43:32;;;;;;;6.70;4.27;;;1.00;99.90;;;;;;5029986;28;20436;-81
2023/02/28 06:45:59;;;;;;;6.30;3.90;;;1.00;99.90;;;;;;5035108;28;20467;-81
2023/02/28 06:48:28;;;;;;;6.40;4.67;;;1.00;99.90;;;;;;4998882;28;20824;-78
2023/02/28 06:51:05;;;;;;;5.67;3.60;;;1.00;99.90;;;;;;5009090;28;20395;-81
2023/02/28 06:53:32;;;;;;;6.03;3.80;;;1.00;99.90;;;;;;5017409;28;20416;-80
2023/02/28 06:55:57;;;;;;;4.43;4.03;;;0.90;99.90;;;;;;5036021;28;20429;-78
2023/02/28 06:58:23;;;;;;;7.93;3.90;;;1.00;99.90;;;;;;5025030;28;20441;-79
2023/02/28 07:00:51;;;;;;;5.80;3.73;;;1.00;99.90;;;;;;5005243;28;20193;-81
2023/02/28 07:03:18;;;;;;;4.57;3.90;;;1.00;99.90;;;;;;5007080;28;20226;-79
2023/02/28 07:05:45;;;;;;;8.13;3.80;;;0.90;99.90;;;;;;5010382;28;20405;-80
2023/02/28 07:08:10;;;;;;;4.40;4.00;;;1.10;99.90;;;;;;5041214;28;20530;-80
2023/02/28 07:10:40;;;;;;;5.23;3.80;;;1.00;99.90;;;;;;5026593;28;20904;-81
2023/02/28 07:13:07;;;;;;;5.13;3.80;;;1.20;99.90;;;;;;5033663;28;20525;-80
2023/02/28 07:15:33;;;;;;;6.70;4.63;;;0.90;99.90;;;;;;5034655;28;20410;-81
2023/02/28 07:17:58;;;;;;;4.47;4.03;;;1.00;99.90;;;;;;5005284;28;20451;-81
2023/02/28 07:20:24;;;;;;;5.47;4.00;;;1.10;99.90;;;;;;5024478;28;20194;-80
2023/02/28 07:22:56;;;;;;;6.30;4.10;;;1.00;99.90;;;;;;5019692;28;20198;-81
2023/02/28 07:25:26;;;;;;;3.90;3.30;;;1.20;99.90;;;;;;5035214;28;20492;-81
2023/02/28 07:27:53;;;;;;;6.20;4.43;;;1.20;99.90;;;;;;5034796;28;20476;-80
2023/02/28 07:30:19;;;;;;;5.00;4.00;;;1.20;99.90;;;;;;5033585;28;20394;-81
2023/02/28 07:32:45;;;;;;;6.47;4.53;;;1.30;99.90;;;;;;5034218;28;20416;-80
2023/02/28 07:35:11;;;;;;;6.77;4.27;;;1.20;99.90;;;;;;5035900;28;20405;-80
2023/02/28 07:37:37;;;;;;;7.20;4.20;;;1.40;99.90;;;;;;5032504;28;20811;-79
2023/02/28 07:40:08;;;;;;;5.23;4.27;;;1.40;99.90;;;;;;5013518;28;20753;-79
2023/02/28 07:42:37;;;;;;;4.80;4.13;;;1.60;99.90;;;;;;5016281;28;20340;-80
2023/02/28 07:45:04;;;;;;;4.07;3.70;;;1.80;99.90;;;;;;5024448;28;20433;-78
2023/02/28 07:47:30;;;;;;;5.30;3.87;;;1.80;99.90;;;;;;5022206;28;20469;-81
2023/02/28 07:49:56;;;;;;;5.20;4.10;;;1.70;99.90;;;;;;5008956;28;20433;-80
2023/02/28 07:52:23;;;;;;;5.83;4.53;;;1.90;99.90;;;;;;5029799;28;20417;-82
2023/02/28 07:54:49;;;;;;;5.03;4.43;;;1.80;99.90;;;;;;5009169;28;20422;-78
2023/02/28 07:57:15;;;;;;;5.70;4.00;;;1.80;99.90;;;;;;5030283;28;20436;-79
2023/02/28 07:59:41;;;;;;;6.33;4.47;;;1.80;99.90;;;;;;5004626;28;20422;-80
2023/02/28 08:02:10;;;;;;;5.87;4.40;;;2.10;99.90;;;;;;5028713;28;20187;-80
2023/02/28 08:04:36;;;;;;;8.53;4.03;;;2.10;99.90;;;;;;4999323;28;20603;-79
2023/02/28 08:07:01;;;;;;;4.57;4.17;;;2.50;99.90;;;;;;5021258;28;20523;-78
2023/02/28 08:09:27;;;;;;;5.13;3.97;;;2.50;99.90;;;;;;5040198;28;20186;-79
2023/02/28 08:11:53;;;;;;;5.87;5.07;;;2.20;99.90;;;;;;5039802;28;20189;-79
2023/02/28 08:14:18;;;;;;;7.10;4.60;;;2.40;99.90;;;;;;5005111;28;20269;-81
2023/02/28 08:16:44;;;;;;;4.60;4.00;;;2.30;99.90;;;;;;5020035;28;20205;-78
2023/02/28 08:19:10;;;;;;;5.63;4.90;;;2.30;99.90;;;;;;5021430;28;20189;-80
2023/02/28 08:21:35;;;;;;;4.50;4.10;;;2.30;99.90;;;;;;5039202;28;20183;-79
2023/02/28 08:24:01;;;;;;;6.10;4.00;;;2.30;99.90;;;;;;5012067;28;20186;-79
2023/02/28 08:26:27;;;;;;;6.37;4.30;;;2.40;99.90;;;;;;5019522;28;20326;-79
2023/02/28 08:28:52;;;;;;;5.40;4.40;;;2.60;99.90;;;;;;5018772;28;20211;-78
2023/02/28 08:31:19;;;;;;;5.17;4.60;;;2.40;99.90;;;;;;5022137;28;20191;-77
2023/02/28 08:33:45;;;;;;;4.87;4.37;;;2.70;99.90;;;;;;5003905;28;20183;-80
2023/02/28 08:36:11;;;;;;;6.87;4.77;;;2.50;99.90;;;;;;5017353;28;20627;-78
2023/02/28 08:38:38;;;;;;;5.37;4.37;;;2.70;99.90;;;;;;5018621;28;20459;-78
2023/02/28 08:41:07;;;;;;;6.27;4.60;;;3.10;99.90;;;;;;5037505;28;20515;-80
2023/02/28 08:43:34;;;;;;;7.50;4.77;;;3.40;99.90;;;;;;5019183;28;20413;-77
2023/02/28 08:46:00;;;;;;;5.17;4.20;;;3.80;99.90;;;;;;5001205;28;20405;-79
2023/02/28 08:48:30;;;;;;;7.27;4.77;;;3.70;99.90;;;;;;5002351;28;21008;-79
2023/02/28 08:51:02;;;;;;;6.50;4.33;;;3.90;99.90;;;;;;5036945;28;20253;-81
2023/02/28 08:53:27;;;;;;;5.87;4.43;;;3.90;99.90;;;;;;5037153;28;20424;-79
2023/02/28 08:56:05;;;;;;;5.17;4.50;;;3.90;99.90;;;;;;5020341;28;20409;-79
2023/02/28 08:58:31;;;;;;;5.13;4.63;;;4.30;99.90;;;;;;5019918;28;20182;-82
2023/02/28 09:00:57;;;;;;;7.10;4.60;;;4.10;99.90;;;;;;5019205;28;20413;-80
2023/02/28 09:03:23;;;;;;;4.70;3.80;;;4.50;99.90;;;;;;5019468;28;20426;-79
2023/02/28 09:05:57;;;;;;;5.30;4.17;;;4.70;99.90;;;;;;5037957;28;20417;-81
2023/02/28 09:08:24;;;;;;;5.57;4.33;;;4.70;99.40;;;;;;5003274;28;20460;-81
2023/02/28 09:10:50;;;;;;;5.60;3.80;;;4.90;99.40;;;;;;5037499;28;20769;-80
2023/02/28 09:13:16;;;;;;;6.37;4.10;;;5.20;98.30;;;;;;5038217;28;20441;-79
2023/02/28 09:15:42;;;;;;;4.37;3.97;;;5.00;97.20;;;;;;5037915;28;20412;-80
2023/02/28 09:18:08;;;;;;;5.13;4.23;;;5.60;97.50;;;;;;5019258;28;20445;-79
2023/02/28 09:20:34;;;;;;;4.23;3.83;;;5.80;97.50;;;;;;5019747;28;20239;-79
2023/02/28 09:22:59;;;;;;;8.07;4.53;;;5.90;97.00;;;;;;5020704;28;20179;-80
2023/02/28 09:25:25;;;;;;;3.60;3.30;;;6.20;96.20;;;;;;5020527;28;20673;-80
2023/02/28 09:27:51;;;;;;;6.47;3.57;;;6.30;96.00;;;;;;5038495;28;20224;-80
2023/02/28 09:30:17;;;;;;;6.20;4.00;;;6.50;95.90;;;;;;5020952;28;20183;-79
2023/02/28 09:32:42;;;;;;;7.67;3.80;;;6.60;95.60;;;;;;5021173;28;20240;-80
2023/02/28 09:35:13;;;;;;;3.10;2.80;;;6.70;95.30;;;;;;5004969;28;20413;-78
2023/02/28 09:37:38;;;;;;;4.50;3.63;;;6.90;95.00;;;;;;5038358;28;20194;-77
2023/02/28 09:40:05;;;;;;;3.80;3.40;;;7.00;94.40;;;;;;5020073;28;20463;-81
2023/02/28 09:42:33;;;;;;;6.30;3.60;;;7.30;93.50;;;;;;5018730;28;20186;-78
2023/02/28 09:45:06;;;;;;;4.60;3.60;;;7.40;93.70;;;;;;5017138;28;20461;-78
2023/02/28 09:47:37;;;;;;;6.07;3.47;;;7.50;92.50;;;;;;5018911;28;20464;-79
2023/02/28 09:50:32;;;;;;;3.33;2.97;;;7.50;91.70;;;;;;5036682;28;20924;-79
2023/02/28 09:53:00;;;;;;;3.53;3.17;;;7.30;91.30;;;;;;5002626;28;20416;-80
2023/02/28 09:55:43;;;;;;;4.70;2.73;;;7.10;90.50;;;;;;5036488;28;20454;-82
2023/02/28 09:58:36;;;;;;;3.37;2.83;;;6.90;91.20;;;;;;5023871;28;20457;-80
2023/02/28 10:01:18;;;;;;;4.33;3.10;;;6.90;91.40;;;;;;4999530;28;20843;-78
2023/02/28 10:04:15;;;;;;;3.07;2.77;;;7.10;90.40;;;;;;5012851;28;20448;-79
2023/02/28 10:06:53;;;;;;;2.90;2.70;;;7.20;90.00;;;;;;5010946;28;20505;-79
2023/02/28 10:09:26;;;;;;;4.10;3.60;;;7.40;91.10;;;;;;5016695;28;20843;-81
2023/02/28 10:11:56;;;;;;;3.33;3.03;;;7.50;91.20;;;;;;5018986;28;20516;-80
2023/02/28 10:14:26;;;;;;;2.43;2.23;;;7.50;89.10;;;;;;5025243;28;20420;-80
2023/02/28 10:17:16;;;;;;;2.50;2.30;;;7.70;90.00;;;;;;5023417;28;20452;-78
2023/02/28 10:20:00;;;;;;;2.40;2.20;;;7.60;88.10;;;;;;5029334;28;20469;-77
2023/02/28 10:22:38;;;;;;;2.83;2.20;;;7.50;85.80;;;;;;5036415;28;20512;-79
2023/02/28 10:25:26;;;;;;;3.60;2.43;;;7.40;86.40;;;;;;5019823;28;20754;-80
2023/02/28 10:27:58;;;;;;;2.27;2.07;;;7.30;86.40;;;;;;5021974;28;20468;-81
2023/02/28 10:30:24;;;;;;;2.50;2.30;;;7.30;85.90;;;;;;5031916;28;20505;-81
2023/02/28 10:32:55;;;;;;;3.60;2.40;;;7.30;87.80;;;;;;4996460;28;20529;-78
2023/02/28 10:35:25;;;;;;;2.93;2.20;;;7.30;83.80;;;;;;5027747;28;20183;-78
2023/02/28 10:37:59;;;;;;;2.60;2.20;;;7.40;85.70;;;;;;5024655;28;20444;-78
2023/02/28 10:40:24;;;;;;;2.53;1.90;;;7.40;81.10;;;;;;4990488;28;20453;-80
2023/02/28 10:43:03;;;;;;;2.23;1.73;;;7.30;80.20;;;;;;5015577;28;20884;-80
2023/02/28 10:45:36;;;;;;;3.00;1.93;;;7.20;80.70;;;;;;5014424;28;20174;-77
2023/02/28 10:48:54;;;;;;;3.33;2.50;;;7.20;81.80;;;;;;4999992;28;20565;-78
2023/02/28 10:51:22;;;;;;;3.10;1.90;;;7.20;79.80;;;;;;4993801;28;20406;-79
2023/02/28 10:53:51;;;;;;;2.07;1.90;;;7.30;82.30;;;;;;5033658;28;20404;-80
2023/02/28 10:56:18;;;;;;;3.33;2.23;;;7.40;82.70;;;;;;5032541;28;20520;-81
2023/02/28 10:59:07;;;;;;;3.07;2.50;;;7.30;80.50;;;;;;5033470;28;20402;-81
2023/02/28 11:01:48;;;;;;;3.07;2.13;;;7.40;81.70;;;;;;5032808;28;21085;-80
2023/02/28 11:04:39;;;;;;;2.33;2.13;;;7.30;78.30;;;;;;5007342;28;20417;-77
2023/02/28 11:07:18;;;;;;;2.53;2.30;;;7.30;78.30;;;;;;5015523;28;20465;-79
2023/02/28 11:09:50;;;;;;;2.60;2.40;;;7.10;77.20;;;;;;5033373;28;20423;-79
2023/02/28 11:12:37;;;;;;;3.77;3.00;;;6.80;76.90;;;;;;5032159;28;20414;-80
2023/02/28 11:15:21;;;;;;;2.83;2.43;;;6.60;78.50;;;;;;5032112;28;20789;-79
2023/02/28 11:18:17;;;;;;;2.20;2.00;;;6.50;79.20;;;;;;5026940;28;20447;-80
2023/02/28 11:20:49;;;;;;;3.37;3.00;;;6.60;80.40;;;;;;5033712;28;20502;-81
2023/02/28 11:23:16;;;;;;;3.13;2.47;;;6.60;81.70;;;;;;5015282;28;20409;-80
2023/02/28 11:25:51;;;;;;;2.57;2.37;;;6.70;81.70;;;;;;4999485;28;20505;-80
2023/02/28 11:28:28;;;;;;;3.10;2.50;;;6.60;79.20;;;;;;4998571;28;21034;-80
2023/02/28 11:31:13;;;;;;;3.10;2.50;;;6.40;80.70;;;;;;5028586;28;20506;-79
2023/02/28 11:33:45;;;;;;;4.57;2.80;;;6.40;82.10;;;;;;5005466;28;20409;-77
2023/02/28 11:36:20;;;;;;;4.53;2.40;;;6.50;82.30;;;;;;5032614;28;20528;-79
2023/02/28 11:38:46;;;;;;;3.40;2.37;;;6.50;81.80;;;;;;5031192;28;20412;-78
2023/02/28 11:41:46;;;;;;;3.10;2.60;;;6.60;81.50;;;;;;5017902;28;20429;-80
2023/02/28 11:44:33;;;;;;;3.60;2.30;;;6.50;80.90;;;;;;5030483;28;20444;-80
2023/02/28 11:47:25;;;;;;;4.20;2.47;;;6.50;80.40;;;;;;5015930;28;20471;-77
2023/02/28 11:50:10;;;;;;;2.80;2.50;;;6.70;79.80;;;;;;5030816;28;20455;-78
2023/02/28 11:52:56;;;;;;;4.13;2.70;;;6.80;80.40;;;;;;5018373;28;20527;-80
2023/02/28 11:55:25;;;;;;;2.83;2.33;;;6.80;82.70;;;;;;5032165;28;20421;-78
2023/02/28 11:58:32;;;;;;;3.10;2.60;;;6.90;80.90;;;;;;5033234;28;20501;-80
2023/02/28 12:01:44;;;;;;;4.10;2.80;;;6.90;80.00;;;;;;5020124;28;20491;-79
2023/02/28 12:04:33;;;;;;;2.80;2.50;;;7.00;82.60;;;;;;4992191;28;20421;-78
2023/02/28 12:07:09;;;;;;;2.80;2.60;;;7.00;78.40;;;;;;5031640;28;20452;-80
2023/02/28 12:09:50;;;;;;;3.33;2.80;;;7.20;80.90;;;;;;5030253;28;20428;-79
2023/02/28 12:12:44;;;;;;;2.73;2.53;;;7.10;77.40;;;;;;5026817;28;20425;-78
2023/02/28 12:15:45;;;;;;;4.43;3.10;;;7.20;78.30;;;;;;5033458;28;20413;-78
2023/02/28 12:18:30;;;;;;;3.10;2.80;;;7.40;80.30;;;;;;5032156;28;20444;-81
2023/02/28 12:21:09;;;;;;;7.83;3.10;;;7.50;78.40;;;;;;5017966;28;20511;-81
2023/02/28 12:24:04;;;;;;;3.50;3.20;;;7.50;77.50;;;;;;5020702;28;20503;-80
2023/02/28 12:26:39;;;;;;;2.83;2.53;;;7.40;77.10;;;;;;5002535;28;20456;-80
2023/02/28 12:29:32;;;;;;;3.30;2.70;;;7.40;78.80;;;;;;5015125;28;20566;-80
2023/02/28 12:32:12;;;;;;;3.20;2.90;;;7.60;78.20;;;;;;5014283;28;20429;-80
2023/02/28 12:34:49;;;;;;;3.30;3.00;;;7.70;78.20;;;;;;4998532;28;20417;-80
2023/02/28 12:37:37;;;;;;;3.07;2.80;;;7.60;76.90;;;;;;5037226;28;20486;-79
2023/02/28 12:40:22;;;;;;;3.17;2.87;;;7.60;76.90;;;;;;5038882;28;20403;-81
2023/02/28 12:43:03;;;;;;;5.10;3.10;;;7.60;76.30;;;;;;5021785;28;20499;-78
2023/02/28 12:45:53;;;;;;;3.27;2.40;;;7.50;76.00;;;;;;5038325;28;20982;-78
2023/02/28 12:48:27;;;;;;;3.70;3.40;;;7.50;79.50;;;;;;5038225;28;20463;-81
2023/02/28 12:50:53;;;;;;;6.03;3.00;;;7.50;80.70;;;;;;5037982;28;20451;-81
2023/02/28 12:53:37;;;;;;;3.80;3.37;;;7.50;81.30;;;;;;5021063;28;20419;-80
2023/02/28 12:56:09;;;;;;;3.13;2.90;;;7.60;81.10;;;;;;5055835;28;20408;-79
2023/02/28 12:58:56;;;;;;;4.37;3.00;;;7.70;78.80;;;;;;5020639;28;20419;-79
2023/02/28 13:01:36;;;;;;;2.67;2.47;;;7.70;77.50;;;;;;5019705;28;20430;-76
2023/02/28 13:04:23;;;;;;;4.23;3.43;;;7.70;76.10;;;;;;5020773;28;20474;-79
2023/02/28 13:07:14;;;;;;;3.67;3.13;;;7.70;77.70;;;;;;5020416;28;20498;-81
2023/02/28 13:09:40;;;;;;;3.70;3.10;;;7.80;78.10;;;;;;5020443;28;20524;-80
2023/02/28 13:12:14;;;;;;;3.50;3.20;;;7.70;78.40;;;;;;5055309;28;20427;-80
2023/02/28 13:14:40;;;;;;;3.57;3.27;;;7.80;79.90;;;;;;5036654;28;20455;-81
2023/02/28 13:17:09;;;;;;;3.80;3.50;;;7.90;80.90;;;;;;5034089;28;20448;-79
2023/02/28 13:19:39;;;;;;;3.70;3.40;;;7.90;79.40;;;;;;5016738;28;20425;-78
2023/02/28 13:22:16;;;;;;;3.30;3.00;;;7.80;80.20;;;;;;5035096;28;20448;-78